Time;durP1;ratioP1;P1;durP2;ratioP2;P2;SDS_P1;SDS_P2;PMS_P1;PMS_P2;Temp;Humidity;BMP_temperature;BMP_pressure;BME280_temperature;BME280_humidity;BME280_pressure;Samples;Min_cycle;Max_cycle;Signal;HPM_P1;HPM_P2
2023/03/04 00:00:17;;;;;;;15.33;5.30;;;4.20;99.90;;;;;;4998439;28;20232;-83
2023/03/04 00:02:44;;;;;;;15.03;5.10;;;4.20;99.90;;;;;;4995318;28;20213;-84
2023/03/04 00:05:11;;;;;;;16.73;6.00;;;4.20;99.90;;;;;;5003345;28;20201;-82
2023/03/04 00:07:38;;;;;;;15.30;4.80;;;4.30;99.90;;;;;;5011173;28;20246;-84
2023/03/04 00:10:07;;;;;;;11.93;4.97;;;4.20;99.90;;;;;;5011705;28;20250;-84
2023/03/04 00:12:34;;;;;;;11.70;4.40;;;4.30;99.90;;;;;;5012016;28;20217;-83
2023/03/04 00:15:00;;;;;;;14.87;4.53;;;4.20;99.90;;;;;;4996712;28;20711;-83
2023/03/04 00:17:28;;;;;;;15.10;6.53;;;4.20;99.90;;;;;;4994805;28;20229;-83
2023/03/04 00:19:56;;;;;;;13.50;4.57;;;4.20;99.90;;;;;;4977881;28;20654;-83
2023/03/04 00:22:22;;;;;;;17.70;5.20;;;4.30;99.90;;;;;;4977026;28;20248;-83
2023/03/04 00:24:49;;;;;;;21.67;5.13;;;4.30;99.90;;;;;;4978297;28;20214;-83
2023/03/04 00:27:17;;;;;;;16.77;4.73;;;4.30;99.90;;;;;;4997323;28;20227;-83
2023/03/04 00:29:44;;;;;;;16.53;4.93;;;4.30;99.90;;;;;;4997502;28;20205;-83
2023/03/04 00:32:11;;;;;;;18.27;5.43;;;4.30;99.90;;;;;;4999540;28;20219;-83
2023/03/04 00:34:39;;;;;;;13.77;4.97;;;4.30;99.90;;;;;;4999782;28;20225;-84
2023/03/04 00:37:06;;;;;;;14.67;4.53;;;4.30;99.90;;;;;;5001542;28;20256;-84
2023/03/04 00:39:33;;;;;;;18.70;5.90;;;4.40;99.90;;;;;;5000560;28;20571;-83
2023/03/04 00:41:59;;;;;;;19.30;5.10;;;4.40;99.90;;;;;;5000136;28;20231;-83
2023/03/04 00:44:27;;;;;;;15.53;4.30;;;4.30;99.90;;;;;;4999718;28;20561;-83
2023/03/04 00:46:54;;;;;;;17.03;4.60;;;4.30;99.90;;;;;;4999986;28;20670;-83
2023/03/04 00:49:21;;;;;;;16.87;5.00;;;4.30;99.90;;;;;;4999060;28;20662;-83
2023/03/04 00:51:48;;;;;;;16.27;4.27;;;4.40;99.90;;;;;;4999006;28;20715;-83
2023/03/04 00:54:15;;;;;;;16.60;4.40;;;4.40;99.90;;;;;;4998719;28;20217;-84
2023/03/04 00:56:41;;;;;;;21.47;5.50;;;4.40;99.90;;;;;;4998660;28;20216;-83
2023/03/04 00:59:08;;;;;;;17.27;4.57;;;4.40;99.90;;;;;;4997979;28;20609;-84
2023/03/04 01:01:36;;;;;;;15.00;4.00;;;4.40;99.90;;;;;;4999292;28;20215;-84
2023/03/04 01:04:03;;;;;;;9.40;3.67;;;4.40;99.90;;;;;;5000079;28;20665;-84
2023/03/04 01:06:30;;;;;;;14.37;3.77;;;4.40;99.90;;;;;;4999159;28;20212;-84
2023/03/04 01:08:57;;;;;;;18.20;4.17;;;4.40;99.90;;;;;;4999692;28;20233;-83
2023/03/04 01:11:24;;;;;;;16.10;4.23;;;4.40;99.90;;;;;;4999592;28;20212;-84
2023/03/04 01:13:51;;;;;;;14.73;4.13;;;4.40;99.90;;;;;;4999137;28;20232;-83
2023/03/04 01:16:18;;;;;;;20.43;4.63;;;4.40;99.90;;;;;;4999396;28;20579;-84
2023/03/04 01:18:46;;;;;;;17.00;4.77;;;4.40;99.90;;;;;;4998799;28;20592;-84
2023/03/04 01:21:13;;;;;;;16.83;4.60;;;4.40;99.90;;;;;;4998557;28;20241;-84
2023/03/04 01:23:40;;;;;;;21.63;5.93;;;4.40;99.90;;;;;;4997649;28;20204;-84
2023/03/04 01:26:07;;;;;;;19.30;4.43;;;4.40;99.90;;;;;;4998133;28;20211;-83
2023/03/04 01:28:34;;;;;;;19.57;5.37;;;4.40;99.90;;;;;;4997456;28;20221;-83
2023/03/04 01:31:01;;;;;;;14.10;4.33;;;4.40;99.90;;;;;;4998538;28;20669;-83
2023/03/04 01:33:28;;;;;;;13.93;3.97;;;4.40;99.90;;;;;;4998374;28;20201;-84
2023/03/04 01:35:57;;;;;;;15.30;3.70;;;4.40;99.90;;;;;;4999090;28;20674;-84
2023/03/04 01:38:23;;;;;;;21.73;5.07;;;4.40;99.90;;;;;;4997501;28;20629;-84
2023/03/04 01:40:50;;;;;;;18.40;4.97;;;4.40;99.90;;;;;;4999332;28;20207;-83
2023/03/04 01:43:22;;;;;;;19.07;5.23;;;4.50;99.90;;;;;;4999373;28;20213;-84
2023/03/04 01:45:50;;;;;;;15.43;4.73;;;4.50;99.90;;;;;;4998763;28;20209;-84
2023/03/04 01:48:21;;;;;;;18.40;4.63;;;4.50;99.90;;;;;;4998042;28;20233;-84
2023/03/04 01:50:48;;;;;;;16.73;4.07;;;4.60;99.90;;;;;;4998183;28;20212;-83
2023/03/04 01:53:20;;;;;;;15.80;4.87;;;4.50;99.90;;;;;;4996459;28;20272;-84
2023/03/04 01:55:47;;;;;;;18.33;5.23;;;4.50;99.90;;;;;;4996563;28;20221;-84
2023/03/04 01:58:14;;;;;;;18.03;4.77;;;4.50;99.90;;;;;;4995986;28;20225;-84
2023/03/04 02:00:41;;;;;;;15.27;4.03;;;4.60;99.90;;;;;;4996668;28;20199;-85
2023/03/04 02:03:11;;;;;;;16.50;4.30;;;4.60;99.90;;;;;;4992396;28;20209;-85
2023/03/04 02:05:40;;;;;;;11.33;3.67;;;4.60;99.90;;;;;;4986688;28;20201;-85
2023/03/04 02:08:08;;;;;;;13.83;4.23;;;4.60;99.90;;;;;;5000358;28;20217;-84
2023/03/04 02:10:37;;;;;;;16.23;3.83;;;4.60;99.90;;;;;;4995448;28;20202;-85
2023/03/04 02:13:04;;;;;;;13.30;3.73;;;4.60;99.90;;;;;;4991744;28;20224;-84
2023/03/04 02:15:31;;;;;;;15.20;3.37;;;4.60;99.90;;;;;;4995148;28;20229;-84
2023/03/04 02:17:58;;;;;;;13.83;4.67;;;4.70;99.90;;;;;;4994287;28;20235;-84
2023/03/04 02:20:42;;;;;;;14.40;3.13;;;4.60;99.90;;;;;;4995542;28;20189;-84
2023/03/04 02:23:15;;;;;;;15.17;4.30;;;4.70;99.90;;;;;;4995542;28;20279;-83
2023/03/04 02:25:50;;;;;;;11.37;3.40;;;4.70;99.90;;;;;;4996911;28;20568;-84
2023/03/04 02:28:18;;;;;;;13.83;3.63;;;4.70;99.90;;;;;;4994376;28;20606;-85
2023/03/04 02:30:45;;;;;;;13.03;2.83;;;4.70;99.90;;;;;;4996630;28;20193;-84
2023/03/04 02:33:17;;;;;;;16.90;2.70;;;4.70;99.90;;;;;;4996861;28;20205;-84
2023/03/04 02:35:44;;;;;;;16.17;3.17;;;4.70;99.90;;;;;;4995461;28;20638;-84
2023/03/04 02:38:11;;;;;;;10.50;2.77;;;4.70;99.90;;;;;;4993958;28;20221;-84
2023/03/04 02:40:41;;;;;;;11.77;2.70;;;4.70;99.90;;;;;;4990209;28;20600;-85
2023/03/04 02:43:11;;;;;;;16.70;2.77;;;4.80;99.90;;;;;;4996918;28;20289;-84
2023/03/04 02:45:43;;;;;;;11.53;3.23;;;4.80;99.90;;;;;;4995357;28;20207;-84
2023/03/04 02:48:11;;;;;;;15.30;2.97;;;4.90;99.90;;;;;;4989477;28;20241;-84
2023/03/04 02:50:41;;;;;;;13.07;2.50;;;4.80;99.90;;;;;;4977702;28;20198;-84
2023/03/04 02:53:08;;;;;;;14.23;3.00;;;4.90;99.90;;;;;;4989793;28;20268;-84
2023/03/04 02:55:35;;;;;;;14.57;2.30;;;4.80;99.90;;;;;;4993177;28;20222;-85
2023/03/04 02:58:05;;;;;;;7.47;2.83;;;4.90;99.90;;;;;;4996390;28;20225;-84
2023/03/04 03:00:32;;;;;;;14.70;2.43;;;4.90;99.90;;;;;;4999973;28;20284;-84
2023/03/04 03:03:05;;;;;;;14.63;2.57;;;4.80;99.90;;;;;;4998830;28;20207;-84
2023/03/04 03:05:40;;;;;;;11.17;2.57;;;4.90;99.90;;;;;;5005086;28;20197;-84
2023/03/04 03:08:10;;;;;;;16.57;2.80;;;4.90;99.90;;;;;;4996612;28;20240;-84
2023/03/04 03:10:39;;;;;;;7.37;2.07;;;4.90;99.90;;;;;;4999374;28;20217;-84
2023/03/04 03:13:09;;;;;;;10.83;2.33;;;4.90;99.90;;;;;;5003695;28;20209;-84
2023/03/04 03:15:40;;;;;;;14.53;2.33;;;5.00;99.90;;;;;;5005402;28;20222;-84
2023/03/04 03:18:09;;;;;;;6.10;1.70;;;4.90;99.90;;;;;;5001355;28;20329;-84
2023/03/04 03:20:36;;;;;;;10.67;1.97;;;5.00;99.90;;;;;;5005766;28;20205;-84
2023/03/04 03:23:06;;;;;;;10.00;2.53;;;5.00;99.90;;;;;;5007540;28;20209;-84
2023/03/04 03:25:33;;;;;;;14.00;2.50;;;5.00;99.90;;;;;;4999967;28;20207;-83
2023/03/04 03:28:06;;;;;;;15.07;1.90;;;5.00;99.90;;;;;;4995195;28;20297;-84
2023/03/04 03:30:38;;;;;;;10.27;2.00;;;5.00;99.90;;;;;;5009630;28;20263;-84
2023/03/04 03:33:09;;;;;;;6.10;2.67;;;5.00;99.90;;;;;;5008409;28;20212;-84
2023/03/04 03:35:36;;;;;;;11.57;2.23;;;5.00;99.90;;;;;;5008047;28;20227;-84
2023/03/04 03:38:06;;;;;;;10.93;2.30;;;5.00;99.90;;;;;;5002965;28;20230;-86
2023/03/04 03:40:33;;;;;;;10.33;1.80;;;5.00;99.90;;;;;;5004753;28;20257;-85
2023/03/04 03:43:03;;;;;;;10.30;2.33;;;5.00;99.90;;;;;;5001479;28;20295;-85
2023/03/04 03:45:30;;;;;;;13.97;2.10;;;5.00;99.90;;;;;;5003247;28;20208;-85
2023/03/04 03:47:57;;;;;;;10.37;2.30;;;5.00;99.90;;;;;;5013392;28;20232;-85
2023/03/04 03:50:25;;;;;;;12.80;2.30;;;5.00;99.90;;;;;;5000182;28;20206;-85
2023/03/04 03:52:52;;;;;;;15.43;2.73;;;5.00;99.90;;;;;;5005481;28;20212;-85
2023/03/04 03:55:19;;;;;;;10.20;1.80;;;5.00;99.90;;;;;;5001013;28;20245;-85
2023/03/04 03:57:45;;;;;;;10.67;1.80;;;5.00;99.90;;;;;;5001160;28;20217;-85
2023/03/04 04:00:13;;;;;;;9.67;2.20;;;5.00;99.90;;;;;;4999835;28;20264;-85
2023/03/04 04:02:43;;;;;;;12.73;2.00;;;4.90;99.90;;;;;;5013087;28;20283;-86
2023/03/04 04:05:14;;;;;;;7.80;1.80;;;5.00;99.90;;;;;;5004009;28;20204;-85
2023/03/04 04:07:45;;;;;;;11.73;2.10;;;4.90;99.90;;;;;;5005128;28;20221;-85
2023/03/04 04:10:12;;;;;;;10.80;2.20;;;4.90;99.90;;;;;;5008527;28;20211;-86
2023/03/04 04:12:41;;;;;;;8.83;2.23;;;4.90;99.90;;;;;;5008515;28;20224;-84
2023/03/04 04:15:15;;;;;;;9.97;1.80;;;4.90;99.90;;;;;;5009464;28;20754;-86
2023/03/04 04:17:42;;;;;;;7.37;1.90;;;4.90;99.90;;;;;;5000809;28;20221;-85
2023/03/04 04:20:12;;;;;;;14.60;3.90;;;4.90;99.90;;;;;;5017320;28;20208;-85
2023/03/04 04:22:42;;;;;;;11.67;2.60;;;4.90;99.90;;;;;;5010934;28;20208;-85
2023/03/04 04:25:12;;;;;;;9.33;2.13;;;4.80;99.90;;;;;;5012326;28;20205;-85
2023/03/04 04:27:39;;;;;;;11.67;2.50;;;4.80;99.90;;;;;;5036473;22;20239;-88
2023/03/04 04:30:07;;;;;;;7.87;2.10;;;4.90;99.90;;;;;;5013062;28;20554;-87
2023/03/04 04:32:33;;;;;;;7.83;2.10;;;4.80;99.90;;;;;;5024964;28;20200;-86
2023/03/04 04:35:00;;;;;;;6.97;2.33;;;4.80;99.90;;;;;;5019295;28;20845;-87
2023/03/04 04:37:27;;;;;;;12.93;2.50;;;4.80;99.90;;;;;;5016184;28;20307;-89
2023/03/04 04:39:56;;;;;;;10.40;2.53;;;4.80;99.90;;;;;;5016157;28;20204;-86
2023/03/04 04:42:23;;;;;;;7.40;1.93;;;4.80;99.90;;;;;;5008915;28;20865;-88
2023/03/04 04:44:51;;;;;;;8.63;2.33;;;4.80;99.90;;;;;;5023501;28;20215;-87
2023/03/04 04:47:18;;;;;;;6.30;1.90;;;4.90;99.90;;;;;;5014065;28;20315;-88
2023/03/04 04:49:45;;;;;;;8.63;2.07;;;4.70;99.90;;;;;;5021450;28;20205;-86
2023/03/04 04:52:12;;;;;;;15.10;2.30;;;4.70;99.90;;;;;;5020274;28;20220;-88
2023/03/04 04:54:38;;;;;;;16.93;2.50;;;4.60;99.90;;;;;;5018062;28;20200;-88
2023/03/04 04:57:06;;;;;;;9.10;2.07;;;4.60;99.90;;;;;;5023941;28;20226;-87
2023/03/04 04:59:33;;;;;;;8.90;2.30;;;4.60;99.90;;;;;;5026116;28;20201;-87
2023/03/04 05:02:00;;;;;;;9.70;2.20;;;4.50;99.90;;;;;;5015428;28;20244;-88
2023/03/04 05:04:27;;;;;;;8.93;2.20;;;4.50;99.90;;;;;;5018239;28;20208;-88
2023/03/04 05:06:54;;;;;;;12.83;2.60;;;4.50;99.90;;;;;;5026897;28;20235;-87
2023/03/04 05:09:21;;;;;;;15.37;3.83;;;4.50;99.90;;;;;;5024135;28;20200;-87
2023/03/04 05:11:48;;;;;;;10.27;2.23;;;4.50;99.90;;;;;;5021510;28;20259;-87
2023/03/04 05:14:17;;;;;;;7.27;2.50;;;4.50;99.90;;;;;;5018999;28;20207;-88
2023/03/04 05:16:43;;;;;;;9.23;2.03;;;4.50;99.90;;;;;;5020683;28;20316;-88
2023/03/04 05:19:10;;;;;;;9.17;2.80;;;4.50;99.90;;;;;;5013586;28;20216;-88
2023/03/04 05:21:37;;;;;;;11.23;2.37;;;4.40;99.90;;;;;;5013186;28;20284;-87
2023/03/04 05:24:04;;;;;;;8.50;2.50;;;4.40;99.90;;;;;;5030716;28;20231;-88
2023/03/04 05:26:31;;;;;;;9.37;2.50;;;4.40;99.90;;;;;;5012415;28;20648;-89
2023/03/04 05:28:57;;;;;;;5.90;2.03;;;4.40;99.90;;;;;;5026681;28;20267;-88
2023/03/04 05:31:26;;;;;;;9.63;2.30;;;4.40;99.90;;;;;;5021719;28;20259;-88
2023/03/04 05:33:52;;;;;;;9.87;2.20;;;4.50;99.90;;;;;;5031560;28;20196;-88
2023/03/04 05:36:20;;;;;;;8.73;2.50;;;4.50;99.90;;;;;;5026307;28;20228;-88
2023/03/04 05:38:46;;;;;;;11.23;2.30;;;4.50;99.90;;;;;;5015796;28;20211;-89
2023/03/04 05:41:13;;;;;;;6.33;2.20;;;4.50;99.90;;;;;;5014044;28;20204;-88
2023/03/04 05:43:41;;;;;;;9.53;2.30;;;4.50;99.90;;;;;;5027447;28;20197;-89
2023/03/04 05:46:08;;;;;;;7.73;2.00;;;4.50;99.90;;;;;;5040350;28;20627;-90
2023/03/04 05:48:37;;;;;;;7.87;1.87;;;4.50;99.90;;;;;;5029951;28;20230;-88
2023/03/04 05:51:04;;;;;;;7.30;1.90;;;4.50;99.90;;;;;;5021282;28;20208;-87
2023/03/04 05:53:31;;;;;;;7.10;1.83;;;4.50;99.90;;;;;;5020559;28;20216;-87
2023/03/04 05:55:58;;;;;;;9.90;1.97;;;4.50;99.90;;;;;;5022970;28;20226;-88
2023/03/04 05:58:25;;;;;;;8.30;1.90;;;4.60;99.90;;;;;;5037047;28;20238;-87
2023/03/04 06:00:52;;;;;;;8.30;1.87;;;4.60;99.90;;;;;;5032883;28;20208;-89
2023/03/04 06:03:22;;;;;;;4.63;1.50;;;4.60;99.90;;;;;;5019662;28;20200;-87
2023/03/04 06:05:50;;;;;;;7.93;2.63;;;4.60;99.90;;;;;;5027210;28;20208;-87
2023/03/04 06:08:17;;;;;;;4.90;1.90;;;4.60;99.90;;;;;;5036624;28;20234;-88
2023/03/04 06:10:44;;;;;;;6.73;1.73;;;4.60;99.90;;;;;;5037021;28;20205;-87
2023/03/04 06:13:11;;;;;;;10.40;3.00;;;4.60;99.90;;;;;;5037203;28;20201;-89
2023/03/04 06:15:39;;;;;;;6.23;2.03;;;4.60;99.90;;;;;;5037678;28;20224;-89
2023/03/04 06:18:06;;;;;;;6.00;1.80;;;4.60;99.90;;;;;;5037292;28;20216;-87
2023/03/04 06:20:33;;;;;;;7.00;1.60;;;4.70;99.90;;;;;;5037317;28;20212;-86
2023/03/04 06:23:02;;;;;;;5.93;1.43;;;4.70;99.90;;;;;;5024222;28;20690;-88
2023/03/04 06:25:28;;;;;;;5.57;1.50;;;4.70;99.90;;;;;;5020274;28;20208;-88
2023/03/04 06:27:55;;;;;;;7.17;1.80;;;4.80;99.90;;;;;;5021045;28;20244;-88
2023/03/04 06:30:23;;;;;;;2.97;1.37;;;4.80;99.90;;;;;;5020326;28;20222;-88
2023/03/04 06:32:50;;;;;;;7.10;1.93;;;5.00;99.90;;;;;;5020323;28;20299;-87
2023/03/04 06:35:17;;;;;;;5.77;1.90;;;4.90;99.90;;;;;;5017508;28;20224;-89
2023/03/04 06:37:44;;;;;;;5.30;2.20;;;5.00;99.90;;;;;;5017248;28;20224;-89
2023/03/04 06:40:13;;;;;;;5.40;1.40;;;4.90;99.90;;;;;;5017941;28;20204;-87
2023/03/04 06:42:40;;;;;;;8.33;1.80;;;4.90;99.90;;;;;;5032131;28;20192;-87
2023/03/04 06:45:08;;;;;;;7.57;1.77;;;4.90;99.90;;;;;;5039350;28;20226;-88
2023/03/04 06:47:35;;;;;;;8.77;1.73;;;4.90;99.90;;;;;;5035437;28;20319;-87
2023/03/04 06:50:03;;;;;;;5.13;1.70;;;4.90;99.90;;;;;;5017741;28;20684;-88
2023/03/04 06:52:29;;;;;;;4.13;1.43;;;4.90;99.90;;;;;;5017394;28;20200;-87
2023/03/04 06:54:56;;;;;;;4.57;1.90;;;5.00;99.90;;;;;;5017183;28;20670;-87
2023/03/04 06:57:24;;;;;;;7.30;1.40;;;5.00;99.90;;;;;;5018709;28;20228;-87
2023/03/04 06:59:51;;;;;;;4.70;1.47;;;5.10;99.90;;;;;;5018035;28;20208;-87
2023/03/04 07:02:18;;;;;;;4.00;1.43;;;5.10;99.90;;;;;;5017647;28;20201;-88
2023/03/04 07:04:45;;;;;;;3.27;1.40;;;5.20;99.90;;;;;;5018953;28;20216;-87
2023/03/04 07:07:12;;;;;;;5.13;1.93;;;5.20;99.90;;;;;;5016905;28;20517;-87
2023/03/04 07:09:38;;;;;;;6.53;1.80;;;5.20;99.90;;;;;;5018062;28;20220;-87
2023/03/04 07:12:05;;;;;;;4.93;1.47;;;5.20;99.90;;;;;;5019612;28;20207;-88
2023/03/04 07:14:34;;;;;;;7.10;1.73;;;5.30;99.90;;;;;;5019415;28;20196;-88
2023/03/04 07:17:00;;;;;;;2.57;1.43;;;5.30;99.90;;;;;;5018061;28;20451;-87
2023/03/04 07:19:27;;;;;;;5.83;1.70;;;5.40;99.90;;;;;;5018364;28;20204;-88
2023/03/04 07:21:54;;;;;;;8.23;3.03;;;5.40;99.90;;;;;;5016711;28;20204;-88
2023/03/04 07:24:21;;;;;;;4.83;2.10;;;5.40;99.90;;;;;;5011994;28;20200;-88
2023/03/04 07:26:50;;;;;;;9.30;2.70;;;5.40;99.90;;;;;;5026828;28;20216;-87
2023/03/04 07:29:17;;;;;;;8.17;3.10;;;5.50;99.90;;;;;;5031299;28;20214;-88
2023/03/04 07:31:46;;;;;;;5.40;1.80;;;5.50;99.90;;;;;;5032052;28;20280;-87
2023/03/04 07:34:14;;;;;;;6.40;2.40;;;5.50;99.90;;;;;;5019462;28;20567;-87
2023/03/04 07:36:41;;;;;;;7.30;2.00;;;5.60;99.90;;;;;;5017360;28;20228;-88
2023/03/04 07:39:11;;;;;;;9.90;2.30;;;5.60;99.90;;;;;;5022246;28;20228;-88
2023/03/04 07:41:38;;;;;;;7.13;2.30;;;5.60;99.90;;;;;;5023587;28;20294;-89
2023/03/04 07:44:07;;;;;;;6.00;2.07;;;5.40;99.90;;;;;;5023230;28;20208;-88
2023/03/04 07:46:34;;;;;;;3.10;1.87;;;5.30;99.90;;;;;;5021543;28;20200;-88
2023/03/04 07:49:02;;;;;;;5.50;1.83;;;5.30;99.90;;;;;;5021685;28;20267;-90
2023/03/04 07:51:29;;;;;;;6.77;2.07;;;5.30;99.90;;;;;;5021831;28;20212;-89
2023/03/04 07:53:58;;;;;;;6.93;1.90;;;5.50;99.90;;;;;;5021186;28;20214;-89
2023/03/04 07:56:26;;;;;;;11.43;1.80;;;5.40;99.90;;;;;;5017829;28;20216;-88
2023/03/04 07:58:53;;;;;;;4.77;1.87;;;5.50;99.90;;;;;;5026527;28;20208;-88
2023/03/04 08:01:22;;;;;;;9.17;2.70;;;5.60;99.90;;;;;;5025867;28;20215;-89
2023/03/04 08:03:49;;;;;;;9.60;2.43;;;5.70;99.90;;;;;;5020640;28;20685;-88
2023/03/04 08:06:18;;;;;;;6.53;3.00;;;5.80;99.90;;;;;;5019540;28;20197;-90
2023/03/04 08:08:45;;;;;;;5.30;2.30;;;5.80;99.90;;;;;;5018516;28;20441;-89
2023/03/04 08:11:17;;;;;;;4.30;1.77;;;5.80;99.90;;;;;;5019518;28;20201;-88
2023/03/04 08:13:45;;;;;;;3.33;1.73;;;5.50;99.90;;;;;;5013039;28;20196;-89
2023/03/04 08:16:14;;;;;;;7.07;2.10;;;5.40;99.90;;;;;;5019486;28;20224;-87
2023/03/04 08:18:41;;;;;;;6.00;1.93;;;5.50;99.90;;;;;;5019596;28;20650;-89
2023/03/04 08:21:10;;;;;;;2.77;1.50;;;5.40;99.90;;;;;;5020464;28;20216;-89
2023/03/04 08:23:38;;;;;;;6.20;1.90;;;5.50;99.90;;;;;;5017312;28;20204;-89
2023/03/04 08:26:10;;;;;;;5.90;1.80;;;5.50;99.90;;;;;;5021781;28;20224;-87
2023/03/04 08:28:38;;;;;;;4.63;2.10;;;5.70;99.90;;;;;;5022323;28;20239;-88
2023/03/04 08:31:05;;;;;;;4.43;1.67;;;5.80;99.90;;;;;;5016560;28;20207;-89
2023/03/04 08:33:32;;;;;;;5.90;1.70;;;5.80;99.90;;;;;;5019343;28;20204;-88
2023/03/04 08:35:59;;;;;;;6.57;1.70;;;5.90;99.90;;;;;;5022504;28;20224;-88
2023/03/04 08:38:26;;;;;;;6.40;2.20;;;5.80;99.90;;;;;;5018295;28;20227;-88
2023/03/04 08:40:57;;;;;;;3.77;2.40;;;5.70;99.90;;;;;;5021258;28;20210;-90
2023/03/04 08:43:25;;;;;;;5.80;1.87;;;5.50;99.90;;;;;;5022600;28;20205;-90
2023/03/04 08:45:53;;;;;;;5.57;2.37;;;5.40;99.90;;;;;;5016527;28;20255;-90
2023/03/04 08:48:20;;;;;;;6.90;2.90;;;5.30;99.90;;;;;;5018737;28;20229;-89
2023/03/04 08:50:48;;;;;;;11.60;3.73;;;5.30;99.90;;;;;;5025028;28;20195;-91
2023/03/04 08:53:15;;;;;;;6.23;2.47;;;5.30;99.90;;;;;;5038180;28;20187;-92
2023/03/04 08:55:43;;;;;;;6.67;2.33;;;5.20;99.90;;;;;;5040871;28;20998;-93
2023/03/04 08:58:11;;;;;;;5.87;2.37;;;5.30;99.90;;;;;;5032022;28;20246;-91
2023/03/04 09:00:42;;;;;;;8.37;2.80;;;5.40;99.90;;;;;;5038847;28;20200;-90
2023/03/04 09:03:11;;;;;;;3.73;2.07;;;5.40;99.90;;;;;;5040377;28;20204;-90
2023/03/04 09:05:38;;;;;;;7.57;2.20;;;5.40;99.90;;;;;;5038845;28;20199;-90
2023/03/04 09:08:05;;;;;;;6.97;2.73;;;5.50;99.90;;;;;;5029221;28;20298;-90
2023/03/04 09:10:31;;;;;;;4.73;2.17;;;5.60;99.90;;;;;;5026030;28;20201;-89
2023/03/04 09:12:59;;;;;;;5.80;1.93;;;5.40;99.90;;;;;;5023232;28;20229;-89
2023/03/04 09:15:28;;;;;;;3.20;2.20;;;5.50;99.90;;;;;;5020838;28;20262;-88
2023/03/04 09:17:55;;;;;;;3.77;2.13;;;5.60;99.90;;;;;;5021339;28;20237;-89
2023/03/04 09:20:22;;;;;;;4.47;1.87;;;5.60;99.90;;;;;;5020225;28;20236;-88
2023/03/04 09:22:48;;;;;;;5.27;2.10;;;5.80;99.90;;;;;;5013706;28;20204;-89
2023/03/04 09:25:15;;;;;;;4.77;1.77;;;5.70;99.90;;;;;;5027907;28;20206;-89
2023/03/04 09:27:42;;;;;;;6.23;2.40;;;5.80;99.90;;;;;;5019539;28;20235;-89
2023/03/04 09:30:10;;;;;;;5.10;2.07;;;5.90;99.90;;;;;;5022999;28;20201;-88
2023/03/04 09:32:40;;;;;;;4.23;2.20;;;5.90;99.90;;;;;;5028037;28;20656;-90
2023/03/04 09:35:08;;;;;;;7.27;1.90;;;6.00;99.90;;;;;;5021212;28;20624;-89
2023/03/04 09:37:35;;;;;;;5.53;2.20;;;6.00;99.90;;;;;;5023709;28;20282;-91
2023/03/04 09:40:03;;;;;;;8.77;2.13;;;6.30;99.90;;;;;;5014864;28;20288;-90
2023/03/04 09:42:37;;;;;;;5.20;2.00;;;6.30;99.90;;;;;;5020481;28;20211;-89
2023/03/04 09:45:07;;;;;;;5.83;2.23;;;6.00;99.90;;;;;;5011741;28;20200;-90
2023/03/04 09:47:35;;;;;;;4.10;2.77;;;5.80;99.90;;;;;;5016932;28;20243;-90
2023/03/04 09:50:08;;;;;;;5.67;2.20;;;5.70;99.90;;;;;;5007560;28;20216;-90
2023/03/04 09:52:49;;;;;;;3.07;2.27;;;5.60;99.90;;;;;;5004861;28;20197;-88
2023/03/04 09:55:24;;;;;;;6.60;3.13;;;5.70;99.90;;;;;;5010494;28;20211;-89
2023/03/04 09:57:56;;;;;;;5.60;2.20;;;5.50;99.90;;;;;;5008635;28;20285;-89
2023/03/04 10:00:30;;;;;;;6.63;2.20;;;5.50;99.90;;;;;;5023538;28;20211;-89
2023/03/04 10:03:10;;;;;;;4.23;2.27;;;5.40;99.90;;;;;;5014560;28;20591;-89
2023/03/04 10:05:43;;;;;;;6.53;2.27;;;5.70;99.90;;;;;;5011463;28;20201;-88
2023/03/04 10:08:26;;;;;;;5.83;2.03;;;5.60;99.90;;;;;;5022096;28;20604;-89
2023/03/04 10:10:56;;;;;;;4.33;2.93;;;5.70;99.90;;;;;;5007216;28;20201;-89
2023/03/04 10:13:31;;;;;;;8.00;2.63;;;5.80;99.90;;;;;;5012396;28;20197;-89
2023/03/04 10:16:01;;;;;;;5.87;2.70;;;5.90;99.90;;;;;;5023047;28;20207;-90
2023/03/04 10:18:33;;;;;;;8.93;2.57;;;6.00;99.90;;;;;;5009902;28;20239;-89
2023/03/04 10:21:07;;;;;;;9.63;3.20;;;5.80;99.90;;;;;;5013488;28;20566;-89
2023/03/04 10:23:36;;;;;;;10.67;2.40;;;5.80;99.90;;;;;;5010571;28;20205;-90
2023/03/04 10:26:12;;;;;;;12.63;3.13;;;5.90;99.90;;;;;;5016216;28;20586;-89
2023/03/04 10:28:40;;;;;;;10.23;2.73;;;5.80;99.90;;;;;;5049479;22;20693;-90
2023/03/04 10:31:18;;;;;;;9.30;3.10;;;5.90;99.90;;;;;;5008683;28;20232;-90
2023/03/04 10:33:49;;;;;;;8.77;2.63;;;5.90;99.90;;;;;;4995123;28;20576;-90
2023/03/04 10:36:48;;;;;;;8.50;2.30;;;5.80;99.90;;;;;;5003472;28;20732;-90
2023/03/04 10:39:21;;;;;;;11.77;3.37;;;5.90;99.90;;;;;;4991108;28;20209;-90
2023/03/04 10:41:56;;;;;;;9.83;2.77;;;6.00;99.90;;;;;;4994748;28;20208;-89
2023/03/04 10:44:24;;;;;;;11.10;2.33;;;6.10;99.90;;;;;;4998468;28;20212;-90
2023/03/04 10:46:54;;;;;;;6.67;2.00;;;6.10;99.90;;;;;;4996254;28;20205;-89
2023/03/04 10:49:42;;;;;;;9.37;1.90;;;6.20;99.90;;;;;;4994120;28;20304;-90
2023/03/04 10:52:23;;;;;;;10.00;2.70;;;6.50;99.90;;;;;;4993985;28;20617;-89
2023/03/04 10:54:54;;;;;;;10.43;2.47;;;6.50;99.90;;;;;;4993418;28;20208;-90
2023/03/04 10:57:24;;;;;;;9.60;2.63;;;6.50;99.90;;;;;;4994613;28;20488;-89
2023/03/04 10:59:57;;;;;;;12.37;3.20;;;6.80;99.90;;;;;;4993955;28;20285;-91
2023/03/04 11:02:27;;;;;;;13.33;3.63;;;7.10;99.90;;;;;;4994344;28;20209;-90
2023/03/04 11:05:08;;;;;;;8.43;2.23;;;7.40;99.90;;;;;;4995159;28;20560;-90
2023/03/04 11:07:42;;;;;;;13.77;3.10;;;7.30;99.90;;;;;;4986640;28;20248;-90
2023/03/04 11:10:23;;;;;;;15.67;4.13;;;7.20;99.90;;;;;;4993783;28;20654;-91
2023/03/04 11:12:55;;;;;;;15.73;5.77;;;7.40;99.90;;;;;;4985929;28;20225;-90
2023/03/04 11:15:26;;;;;;;11.17;3.50;;;7.40;99.90;;;;;;4971238;28;20763;-91
2023/03/04 11:17:57;;;;;;;8.93;3.60;;;7.50;99.90;;;;;;4997480;28;20251;-90
2023/03/04 11:20:33;;;;;;;6.73;2.40;;;7.50;99.90;;;;;;4994057;28;20201;-91
2023/03/04 11:23:29;;;;;;;9.27;2.60;;;7.40;99.90;;;;;;4994940;28;20204;-89
2023/03/04 11:26:01;;;;;;;9.60;3.77;;;7.50;99.90;;;;;;4997572;28;20223;-91
2023/03/04 11:28:40;;;;;;;15.13;3.57;;;7.60;99.90;;;;;;4993996;28;20356;-90
2023/03/04 11:31:14;;;;;;;14.77;3.63;;;7.60;99.90;;;;;;4989497;28;20208;-91
2023/03/04 11:33:47;;;;;;;6.77;2.70;;;7.50;99.90;;;;;;4994647;28;20288;-90
2023/03/04 11:36:27;;;;;;;9.67;3.63;;;7.70;99.90;;;;;;4998803;28;20744;-91
2023/03/04 11:38:56;;;;;;;11.13;3.00;;;8.20;99.90;;;;;;4995978;28;20228;-91
2023/03/04 11:41:29;;;;;;;9.40;2.57;;;8.60;99.90;;;;;;4992777;28;20204;-90
2023/03/04 11:43:56;;;;;;;10.07;3.23;;;8.60;99.90;;;;;;4994322;28;20215;-90
2023/03/04 11:47:11;;;;;;;8.47;3.00;;;8.40;99.90;;;;;;4994210;28;20215;-91
2023/03/04 11:50:05;;;;;;;9.90;3.27;;;8.30;99.90;;;;;;5000453;28;20201;-91
2023/03/04 11:52:52;;;;;;;7.60;3.40;;;7.90;99.90;;;;;;4977215;28;20213;-91
2023/03/04 11:55:34;;;;;;;7.33;3.67;;;7.50;99.90;;;;;;4993809;28;20285;-91
2023/03/04 11:58:15;;;;;;;12.60;3.97;;;7.30;99.90;;;;;;5010342;28;20279;-91
2023/03/04 12:00:48;;;;;;;9.57;4.07;;;7.60;99.90;;;;;;4994387;28;20282;-91
2023/03/04 12:03:43;;;;;;;9.30;2.90;;;7.70;99.90;;;;;;4990527;28;20213;-90
2023/03/04 12:06:15;;;;;;;10.70;3.53;;;7.60;99.90;;;;;;4992726;28;20237;-91
2023/03/04 12:09:01;;;;;;;7.30;3.00;;;7.60;99.90;;;;;;4996175;28;20649;-91
2023/03/04 12:11:44;;;;;;;11.70;2.67;;;7.40;99.90;;;;;;4965323;28;20229;-91
2023/03/04 12:14:47;;;;;;;7.83;2.77;;;7.70;99.90;;;;;;4978232;28;20220;-91
2023/03/04 12:17:40;;;;;;;8.97;2.70;;;7.70;99.90;;;;;;4984432;28;20234;-90
2023/03/04 12:20:43;;;;;;;9.90;3.70;;;8.10;99.90;;;;;;4993542;28;20296;-89
2023/03/04 12:23:44;;;;;;;9.57;4.00;;;8.20;99.90;;;;;;5004127;28;20295;-91
2023/03/04 12:26:28;;;;;;;9.73;3.77;;;8.20;99.90;;;;;;5011601;28;20231;-91
2023/03/04 12:29:29;;;;;;;15.10;4.40;;;8.20;99.90;;;;;;4994495;28;20225;-90
2023/03/04 12:32:04;;;;;;;8.83;3.50;;;7.90;99.90;;;;;;4983137;28;20201;-92
2023/03/04 12:34:37;;;;;;;5.47;2.40;;;7.80;99.90;;;;;;5001454;28;20238;-89
2023/03/04 12:37:18;;;;;;;11.77;2.73;;;7.70;99.90;;;;;;4983604;28;20753;-89
2023/03/04 12:39:59;;;;;;;7.07;2.30;;;7.60;99.90;;;;;;4993500;28;20205;-91
2023/03/04 12:42:34;;;;;;;9.27;2.20;;;7.70;99.90;;;;;;4996022;28;20714;-90
2023/03/04 12:45:16;;;;;;;8.33;2.03;;;7.60;99.90;;;;;;4997728;28;20557;-91
2023/03/04 12:47:52;;;;;;;5.23;2.20;;;7.50;99.90;;;;;;4993049;28;20240;-90
2023/03/04 12:50:38;;;;;;;6.90;2.20;;;7.50;99.90;;;;;;4997002;28;20208;-92
2023/03/04 12:53:35;;;;;;;8.10;1.90;;;7.60;99.90;;;;;;4990126;28;20276;-90
2023/03/04 12:56:04;;;;;;;9.73;1.90;;;7.60;99.90;;;;;;5001216;28;20215;-90
2023/03/04 12:58:38;;;;;;;11.40;2.47;;;7.80;99.90;;;;;;4999033;28;20225;-89
2023/03/04 13:01:31;;;;;;;6.23;1.63;;;7.80;99.90;;;;;;4992349;28;20693;-90
2023/03/04 13:04:15;;;;;;;2.50;1.43;;;7.90;99.90;;;;;;5005011;28;20270;-91
2023/03/04 13:07:07;;;;;;;6.30;1.60;;;7.80;99.90;;;;;;4992909;28;20240;-91
2023/03/04 13:09:41;;;;;;;12.07;2.77;;;7.60;99.90;;;;;;4980996;28;20236;-90